East Laurinburg, North Carolina
Current Conditions -  °F | °C
As of 10:52 AM on Friday 24 Oct 2014 (Local Time) from KMEB Reporting Station
Clear Clear  
Wind Chill: 61°   Ceiling: Unl
Heat Index: 61°   Visibility: 10mi
Dew Point: 45°   Wind: 7mph
Humidity: 56%   Direction: 20°NNE
Pressure: 30.08"   Gusts: NA
Location:  34.7588°N, 79.4468°W
Report Text: KMEB 241452Z AUTO 02006KT 10SM CLR 16/07 A3008 RMK AO2 SLP184 T01610072 51010
Loading
Personal Weather Stations






























Interactive Weather Map
Tropical Storm Tracking
New forecast layout! Learn more

10-Day Weather Forecast

Advertisements
Track Severe Weather on mobile